createdAt,value
2018-05-26T00:00:56.071Z,980.57
2018-05-26T00:01:55.988Z,980.61
2018-05-26T00:02:55.934Z,980.59
2018-05-26T00:03:55.838Z,980.62
2018-05-26T00:04:55.778Z,980.63
2018-05-26T00:05:55.706Z,980.60
2018-05-26T00:06:55.633Z,980.61
2018-05-26T00:07:55.547Z,980.62
2018-05-26T00:08:55.483Z,980.62
2018-05-26T00:09:55.403Z,980.63
2018-05-26T00:10:55.332Z,980.69
2018-05-26T00:11:55.266Z,980.67
2018-05-26T00:12:55.191Z,980.70
2018-05-26T00:13:55.109Z,980.69
2018-05-26T00:14:55.049Z,980.71
2018-05-26T00:15:54.963Z,980.69
2018-05-26T00:16:54.895Z,980.74
2018-05-26T00:17:54.813Z,980.75
2018-05-26T00:18:54.755Z,980.70
2018-05-26T00:19:54.670Z,980.72
2018-05-26T00:20:54.603Z,980.70
2018-05-26T00:21:54.516Z,980.67
2018-05-26T00:22:54.452Z,980.70
2018-05-26T00:23:54.379Z,980.70
2018-05-26T00:24:54.303Z,980.70
2018-05-26T00:25:54.233Z,980.71
2018-05-26T00:26:54.161Z,980.73
2018-05-26T00:27:54.079Z,980.75
2018-05-26T00:28:54.011Z,980.73
2018-05-26T00:29:53.928Z,980.70
2018-05-26T00:30:53.860Z,980.71
2018-05-26T00:31:53.779Z,980.74
2018-05-26T00:32:53.727Z,980.72
2018-05-26T00:33:53.633Z,980.74
2018-05-26T00:34:53.577Z,980.71
2018-05-26T00:35:53.495Z,980.76
2018-05-26T00:36:53.426Z,980.76
2018-05-26T00:37:53.343Z,980.77
2018-05-26T00:38:53.278Z,980.77
2018-05-26T00:39:53.199Z,980.76
2018-05-26T00:40:53.129Z,980.76
2018-05-26T00:41:53.047Z,980.79
2018-05-26T00:42:52.987Z,980.77
2018-05-26T00:43:52.894Z,980.80
2018-05-26T00:44:52.834Z,980.76
2018-05-26T00:45:52.754Z,980.74
2018-05-26T00:46:52.688Z,980.74
2018-05-26T00:47:52.608Z,980.79
2018-05-26T00:48:52.543Z,980.77
2018-05-26T00:49:52.462Z,980.74
2018-05-26T00:50:53.391Z,980.72
2018-05-26T00:51:52.320Z,980.76
2018-05-26T00:52:52.251Z,980.72
2018-05-26T00:53:52.166Z,980.72
2018-05-26T00:54:52.097Z,980.73
2018-05-26T00:55:52.019Z,980.74
2018-05-26T00:56:51.946Z,980.69
2018-05-26T00:57:51.865Z,980.74
2018-05-26T00:58:51.798Z,980.79
2018-05-26T00:59:51.716Z,980.75
2018-05-26T01:00:51.656Z,980.77
2018-05-26T01:01:51.585Z,980.78
2018-05-26T01:02:51.503Z,980.75
2018-05-26T01:03:51.426Z,980.76
2018-05-26T01:04:51.355Z,980.70
2018-05-26T01:05:51.281Z,980.69
2018-05-26T01:06:51.208Z,980.63
2018-05-26T01:07:51.127Z,980.65
2018-05-26T01:08:51.061Z,980.62
2018-05-26T01:09:50.978Z,980.63
2018-05-26T01:10:50.922Z,980.62
2018-05-26T01:11:50.828Z,980.61
2018-05-26T01:12:50.767Z,980.62
2018-05-26T01:13:50.683Z,980.58
2018-05-26T01:14:50.624Z,980.56
2018-05-26T01:15:50.531Z,980.63
2018-05-26T01:16:50.473Z,980.59
2018-05-26T01:17:50.388Z,980.58
2018-05-26T01:18:50.318Z,980.60
2018-05-26T01:19:50.238Z,980.59
2018-05-26T01:20:50.172Z,980.57
2018-05-26T01:21:50.089Z,980.56
2018-05-26T01:22:50.025Z,980.57
2018-05-26T01:23:49.944Z,980.58
2018-05-26T01:24:49.882Z,980.56
2018-05-26T01:25:49.794Z,980.54
2018-05-26T01:26:49.727Z,980.51
2018-05-26T01:27:49.655Z,980.53
2018-05-26T01:28:49.584Z,980.52
2018-05-26T01:29:49.505Z,980.52
2018-05-26T01:30:49.429Z,980.55
2018-05-26T01:31:49.351Z,980.54
2018-05-26T01:32:49.285Z,980.54
2018-05-26T01:33:49.202Z,980.52
2018-05-26T01:34:49.134Z,980.52
2018-05-26T01:35:49.055Z,980.51
2018-05-26T01:36:48.999Z,980.52
2018-05-26T01:37:48.907Z,980.48
2018-05-26T01:38:48.838Z,980.54
2018-05-26T01:39:48.756Z,980.52
2018-05-26T01:40:48.696Z,980.56
2018-05-26T01:41:48.609Z,980.49
2018-05-26T01:42:48.551Z,980.51
2018-05-26T01:43:48.469Z,980.51
2018-05-26T01:44:48.393Z,980.48
2018-05-26T01:45:48.312Z,980.50
2018-05-26T01:46:48.247Z,980.47
2018-05-26T01:47:48.166Z,980.46
2018-05-26T01:48:48.097Z,980.45
2018-05-26T01:49:48.017Z,980.46
2018-05-26T01:50:47.952Z,980.43
2018-05-26T01:51:47.867Z,980.44
2018-05-26T01:52:47.807Z,980.46
2018-05-26T01:53:47.714Z,980.49
2018-05-26T01:54:47.648Z,980.51
2018-05-26T01:55:47.567Z,980.51
2018-05-26T01:56:47.511Z,980.50
2018-05-26T01:57:47.421Z,980.50
2018-05-26T01:58:47.359Z,980.53
2018-05-26T01:59:47.279Z,980.49
2018-05-26T02:00:48.212Z,980.51
2018-05-26T02:01:47.126Z,980.52
2018-05-26T02:02:47.065Z,980.51
2018-05-26T02:03:46.990Z,980.51
2018-05-26T02:04:46.909Z,980.51
2018-05-26T02:05:46.829Z,980.48
2018-05-26T02:06:46.765Z,980.44
2018-05-26T02:07:46.679Z,980.48
2018-05-26T02:08:46.611Z,980.46
2018-05-26T02:09:46.526Z,980.47
2018-05-26T02:10:46.476Z,980.49
2018-05-26T02:11:46.382Z,980.46
2018-05-26T02:12:46.316Z,980.47
2018-05-26T02:13:46.242Z,980.46
2018-05-26T02:14:46.168Z,980.48
2018-05-26T02:15:46.085Z,980.43
2018-05-26T02:16:46.019Z,980.43
2018-05-26T02:17:45.932Z,980.43
2018-05-26T02:18:45.869Z,980.42
2018-05-26T02:19:45.802Z,980.43
2018-05-26T02:20:45.728Z,980.45
2018-05-26T02:21:45.634Z,980.45
2018-05-26T02:22:45.568Z,980.48
2018-05-26T02:23:45.489Z,980.50
2018-05-26T02:24:45.421Z,980.49
2018-05-26T02:25:45.338Z,980.51
2018-05-26T02:26:45.280Z,980.48
2018-05-26T02:27:45.190Z,980.47
2018-05-26T02:28:45.127Z,980.46
2018-05-26T02:29:45.048Z,980.43
2018-05-26T02:30:44.975Z,980.44
2018-05-26T02:31:44.892Z,980.45
2018-05-26T02:32:44.830Z,980.49
2018-05-26T02:33:44.744Z,980.45
2018-05-26T02:34:44.678Z,980.46
2018-05-26T02:35:44.594Z,980.51
2018-05-26T02:36:44.539Z,980.49
2018-05-26T02:37:44.446Z,980.50
2018-05-26T02:38:45.380Z,980.54
2018-05-26T02:39:44.294Z,980.54
2018-05-26T02:40:44.228Z,980.54
2018-05-26T02:41:44.150Z,980.56
2018-05-26T02:42:44.081Z,980.58
2018-05-26T02:43:44.002Z,980.55
2018-05-26T02:44:43.933Z,980.60
2018-05-26T02:45:43.854Z,980.58
2018-05-26T02:46:43.782Z,980.61
2018-05-26T02:47:43.697Z,980.62
2018-05-26T02:48:43.636Z,980.65
2018-05-26T02:49:43.552Z,980.67
2018-05-26T02:50:43.483Z,980.65
2018-05-26T02:51:43.400Z,980.65
2018-05-26T02:52:43.337Z,980.65
2018-05-26T02:53:43.251Z,980.64
2018-05-26T02:54:43.190Z,980.65
2018-05-26T02:55:43.119Z,980.68
2018-05-26T02:56:43.036Z,980.67
2018-05-26T02:57:42.958Z,980.68
2018-05-26T02:58:42.891Z,980.65
2018-05-26T02:59:42.803Z,980.70
2018-05-26T03:00:42.740Z,980.66
2018-05-26T03:01:42.653Z,980.69
2018-05-26T03:02:42.592Z,980.66
2018-05-26T03:03:42.505Z,980.71
2018-05-26T03:04:42.439Z,980.71
2018-05-26T03:05:42.366Z,980.66
2018-05-26T03:06:42.310Z,980.70
2018-05-26T03:07:42.217Z,980.72
2018-05-26T03:08:42.138Z,980.75
2018-05-26T03:09:42.053Z,980.74
2018-05-26T03:10:42.026Z,980.78
2018-05-26T03:11:41.907Z,980.80
2018-05-26T03:12:41.933Z,980.82
2018-05-26T03:13:41.758Z,980.79
2018-05-26T03:14:41.741Z,980.79
2018-05-26T03:15:41.616Z,980.79
2018-05-26T03:16:41.549Z,980.76
2018-05-26T03:17:41.461Z,980.74
2018-05-26T03:18:41.467Z,980.74
2018-05-26T03:19:41.327Z,980.74
2018-05-26T03:20:41.245Z,980.73
2018-05-26T03:21:41.164Z,980.72
2018-05-26T03:22:41.184Z,980.74
2018-05-26T03:23:41.012Z,980.74
2018-05-26T03:24:40.988Z,980.76
2018-05-26T03:25:40.862Z,980.75
2018-05-26T03:26:40.896Z,980.78
2018-05-26T03:27:40.718Z,980.78
2018-05-26T03:28:40.642Z,980.79
2018-05-26T03:29:40.575Z,980.77
2018-05-26T03:30:40.521Z,980.77
2018-05-26T03:31:40.414Z,980.75
2018-05-26T03:32:40.346Z,980.76
2018-05-26T03:33:40.261Z,980.78
2018-05-26T03:34:40.197Z,980.80
2018-05-26T03:35:40.113Z,980.78
2018-05-26T03:36:40.047Z,980.82
2018-05-26T03:37:39.962Z,980.84
2018-05-26T03:38:39.953Z,980.80
2018-05-26T03:39:39.819Z,980.87
2018-05-26T03:40:39.753Z,980.87
2018-05-26T03:41:39.660Z,980.93
2018-05-26T03:42:39.607Z,980.87
2018-05-26T03:43:39.516Z,980.93
2018-05-26T03:44:39.449Z,980.93
2018-05-26T03:45:39.361Z,980.93
2018-05-26T03:46:39.300Z,980.92
2018-05-26T03:47:39.217Z,980.92
2018-05-26T03:48:39.162Z,980.92
2018-05-26T03:49:39.073Z,980.88
2018-05-26T03:50:38.998Z,980.91
2018-05-26T03:51:38.924Z,980.91
2018-05-26T03:52:38.848Z,980.89
2018-05-26T03:53:38.765Z,980.89
2018-05-26T03:54:38.705Z,980.90
2018-05-26T03:55:38.615Z,980.92
2018-05-26T03:56:38.649Z,980.90
2018-05-26T03:57:38.468Z,980.91
2018-05-26T03:58:38.450Z,980.97
2018-05-26T03:59:38.318Z,980.91
2018-05-26T04:00:38.261Z,980.94
2018-05-26T04:01:38.171Z,980.94
2018-05-26T04:02:38.169Z,980.95
2018-05-26T04:03:38.018Z,980.98
2018-05-26T04:04:37.982Z,980.91
2018-05-26T04:05:37.869Z,980.90
2018-05-26T04:06:37.808Z,980.88
2018-05-26T04:07:37.720Z,980.89
2018-05-26T04:08:37.697Z,980.92
2018-05-26T04:09:37.576Z,980.93
2018-05-26T04:10:37.609Z,980.92
2018-05-26T04:11:37.420Z,980.90
2018-05-26T04:12:37.421Z,980.93
2018-05-26T04:13:37.296Z,980.91
2018-05-26T04:14:37.227Z,980.93
2018-05-26T04:15:37.119Z,980.98
2018-05-26T04:16:37.139Z,980.98
2018-05-26T04:17:36.966Z,981.01
2018-05-26T04:18:36.946Z,981.03
2018-05-26T04:19:36.816Z,981.03
2018-05-26T04:20:36.857Z,981.04
2018-05-26T04:21:36.672Z,981.02
2018-05-26T04:22:36.666Z,981.08
2018-05-26T04:23:36.519Z,981.06
2018-05-26T04:24:36.478Z,981.02
2018-05-26T04:25:36.369Z,981.05
2018-05-26T04:26:36.386Z,981.04
2018-05-26T04:27:36.223Z,981.03
2018-05-26T04:28:36.196Z,981.00
2018-05-26T04:29:36.072Z,981.01
2018-05-26T04:30:36.103Z,981.05
2018-05-26T04:31:35.920Z,981.02
2018-05-26T04:32:35.917Z,981.06
2018-05-26T04:33:35.774Z,981.03
2018-05-26T04:34:35.722Z,981.07
2018-05-26T04:35:35.624Z,981.08
2018-05-26T04:36:35.634Z,981.08
2018-05-26T04:37:35.473Z,981.10
2018-05-26T04:38:36.451Z,981.14
2018-05-26T04:39:35.320Z,981.16
2018-05-26T04:40:35.351Z,981.17
2018-05-26T04:41:35.170Z,981.17
2018-05-26T04:42:35.162Z,981.17
2018-05-26T04:43:35.022Z,981.19
2018-05-26T04:44:34.969Z,981.17
2018-05-26T04:45:34.871Z,981.18
2018-05-26T04:46:34.879Z,981.18
2018-05-26T04:47:34.716Z,981.20
2018-05-26T04:48:34.695Z,981.20
2018-05-26T04:49:34.570Z,981.18
2018-05-26T04:50:34.600Z,981.16
2018-05-26T04:51:34.427Z,981.16
2018-05-26T04:52:34.410Z,981.18
2018-05-26T04:53:34.274Z,981.21
2018-05-26T04:54:34.216Z,981.20
2018-05-26T04:55:34.133Z,981.24
2018-05-26T04:56:34.131Z,981.27
2018-05-26T04:57:33.976Z,981.28
2018-05-26T04:58:33.937Z,981.31
2018-05-26T04:59:33.831Z,981.29
2018-05-26T05:00:33.847Z,981.27
2018-05-26T05:01:33.676Z,981.30
2018-05-26T05:02:33.652Z,981.30
2018-05-26T05:03:33.526Z,981.29
2018-05-26T05:04:33.570Z,981.33
2018-05-26T05:05:33.382Z,981.29
2018-05-26T05:06:33.376Z,981.26
2018-05-26T05:07:33.224Z,981.30
2018-05-26T05:08:33.183Z,981.32
2018-05-26T05:09:33.077Z,981.36
2018-05-26T05:10:33.096Z,981.37
2018-05-26T05:11:32.933Z,981.34
2018-05-26T05:12:32.907Z,981.33
2018-05-26T05:13:32.776Z,981.33
2018-05-26T05:14:32.815Z,981.32
2018-05-26T05:15:32.634Z,981.35
2018-05-26T05:16:32.622Z,981.34
2018-05-26T05:17:32.474Z,981.36
2018-05-26T05:18:32.431Z,981.38
2018-05-26T05:19:32.331Z,981.37
2018-05-26T05:20:32.343Z,981.37
2018-05-26T05:21:32.180Z,981.39
2018-05-26T05:22:32.151Z,981.41
2018-05-26T05:23:32.035Z,981.46
2018-05-26T05:24:31.964Z,981.46
2018-05-26T05:25:31.881Z,981.45
2018-05-26T05:26:31.877Z,981.45
2018-05-26T05:27:31.735Z,981.50
2018-05-26T05:28:31.680Z,981.53
2018-05-26T05:29:31.584Z,981.52
2018-05-26T05:30:31.597Z,981.53
2018-05-26T05:31:31.435Z,981.52
2018-05-26T05:32:31.436Z,981.53
2018-05-26T05:33:31.285Z,981.51
2018-05-26T05:34:31.314Z,981.52
2018-05-26T05:35:31.138Z,981.53
2018-05-26T05:36:31.119Z,981.54
2018-05-26T05:37:31.003Z,981.56
2018-05-26T05:38:30.914Z,981.55
2018-05-26T05:39:30.933Z,981.52
2018-05-26T05:40:30.769Z,981.50
2018-05-26T05:41:30.743Z,981.50
2018-05-26T05:42:30.619Z,981.53
2018-05-26T05:43:30.552Z,981.53
2018-05-26T05:44:30.477Z,981.50
2018-05-26T05:45:30.404Z,981.53
2018-05-26T05:46:30.323Z,981.54
2018-05-26T05:47:30.256Z,981.53
2018-05-26T05:48:30.172Z,981.54
2018-05-26T05:49:30.107Z,981.53
2018-05-26T05:50:30.028Z,981.51
2018-05-26T05:51:29.999Z,981.51
2018-05-26T05:52:29.883Z,981.57
2018-05-26T05:53:29.809Z,981.57
2018-05-26T05:54:29.728Z,981.55
2018-05-26T05:55:29.669Z,981.57
2018-05-26T05:56:29.622Z,981.59
2018-05-26T05:57:29.522Z,981.58
2018-05-26T05:58:29.432Z,981.59
2018-05-26T05:59:29.411Z,981.65
2018-05-26T06:00:29.286Z,981.62
2018-05-26T06:01:29.215Z,981.64
2018-05-26T06:02:29.138Z,981.62
2018-05-26T06:03:29.131Z,981.61
2018-05-26T06:04:28.987Z,981.62
2018-05-26T06:05:28.940Z,981.55
2018-05-26T06:06:28.841Z,981.58
2018-05-26T06:07:28.852Z,981.58
2018-05-26T06:08:28.695Z,981.55
2018-05-26T06:09:28.663Z,981.59
2018-05-26T06:10:28.548Z,981.60
2018-05-26T06:11:28.576Z,981.63
2018-05-26T06:12:28.401Z,981.62
2018-05-26T06:13:28.384Z,981.62
2018-05-26T06:14:28.255Z,981.65
2018-05-26T06:15:28.303Z,981.66
2018-05-26T06:16:28.104Z,981.69
2018-05-26T06:17:28.103Z,981.71
2018-05-26T06:18:27.956Z,981.71
2018-05-26T06:19:27.912Z,981.75
2018-05-26T06:20:27.809Z,981.72
2018-05-26T06:21:27.824Z,981.75
2018-05-26T06:22:27.659Z,981.76
2018-05-26T06:23:27.633Z,981.72
2018-05-26T06:24:27.510Z,981.74
2018-05-26T06:25:27.547Z,981.74
2018-05-26T06:26:27.379Z,981.76
2018-05-26T06:27:27.351Z,981.76
2018-05-26T06:28:27.217Z,981.80
2018-05-26T06:29:27.264Z,981.78
2018-05-26T06:30:27.075Z,981.73
2018-05-26T06:31:27.078Z,981.73
2018-05-26T06:32:26.925Z,981.73
2018-05-26T06:33:26.886Z,981.72
2018-05-26T06:34:26.779Z,981.70
2018-05-26T06:35:26.799Z,981.68
2018-05-26T06:36:26.629Z,981.70
2018-05-26T06:37:26.605Z,981.70
2018-05-26T06:38:26.481Z,981.70
2018-05-26T06:39:26.516Z,981.73
2018-05-26T06:40:26.336Z,981.71
2018-05-26T06:41:26.324Z,981.74
2018-05-26T06:42:26.194Z,981.77
2018-05-26T06:43:26.235Z,981.78
2018-05-26T06:44:26.048Z,981.75
2018-05-26T06:45:26.045Z,981.76
2018-05-26T06:46:25.897Z,981.74
2018-05-26T06:47:25.855Z,981.75
2018-05-26T06:48:25.753Z,981.74
2018-05-26T06:49:25.765Z,981.73
2018-05-26T06:50:25.601Z,981.75
2018-05-26T06:51:25.574Z,981.76
2018-05-26T06:52:25.458Z,981.77
2018-05-26T06:53:25.494Z,981.76
2018-05-26T06:54:25.317Z,981.76
2018-05-26T06:55:25.297Z,981.73
2018-05-26T06:56:25.161Z,981.72
2018-05-26T06:57:25.209Z,981.74
2018-05-26T06:58:25.019Z,981.75
2018-05-26T06:59:25.017Z,981.71
2018-05-26T07:00:24.877Z,981.69
2018-05-26T07:01:25.853Z,981.71
2018-05-26T07:02:24.728Z,981.67
2018-05-26T07:03:24.739Z,981.64
2018-05-26T07:04:24.591Z,981.68
2018-05-26T07:05:24.546Z,981.66
2018-05-26T07:06:24.443Z,981.60
2018-05-26T07:07:24.457Z,981.65
2018-05-26T07:08:24.299Z,981.58
2018-05-26T07:09:24.269Z,981.64
2018-05-26T07:10:24.147Z,981.60
2018-05-26T07:11:24.179Z,981.66
2018-05-26T07:12:24.003Z,981.65
2018-05-26T07:13:23.983Z,981.63
2018-05-26T07:14:23.858Z,981.61
2018-05-26T07:15:23.898Z,981.61
2018-05-26T07:16:23.715Z,981.62
2018-05-26T07:17:23.706Z,981.57
2018-05-26T07:18:23.573Z,981.60
2018-05-26T07:19:23.617Z,981.62
2018-05-26T07:20:23.427Z,981.61
2018-05-26T07:21:23.426Z,981.60
2018-05-26T07:22:23.287Z,981.59
2018-05-26T07:23:23.233Z,981.63
2018-05-26T07:24:23.137Z,981.64
2018-05-26T07:25:23.147Z,981.67
2018-05-26T07:26:22.994Z,981.68
2018-05-26T07:27:22.958Z,981.61
2018-05-26T07:28:22.855Z,981.63
2018-05-26T07:29:23.889Z,981.69
2018-05-26T07:30:22.710Z,981.64
2018-05-26T07:31:22.678Z,981.68
2018-05-26T07:32:22.563Z,981.64
2018-05-26T07:33:22.587Z,981.65
2018-05-26T07:34:22.422Z,981.65
2018-05-26T07:35:23.356Z,981.66
2018-05-26T07:36:22.284Z,981.68
2018-05-26T07:37:22.308Z,981.68
2018-05-26T07:38:22.135Z,981.66
2018-05-26T07:39:22.117Z,981.68
2018-05-26T07:40:21.989Z,981.68
2018-05-26T07:41:22.032Z,981.66
2018-05-26T07:42:21.850Z,981.65
2018-05-26T07:43:32.900Z,981.65
2018-05-26T07:44:21.709Z,981.68
2018-05-26T07:45:21.753Z,981.69
2018-05-26T07:46:21.566Z,981.70
2018-05-26T07:47:21.560Z,981.70
2018-05-26T07:48:21.425Z,981.70
2018-05-26T07:49:21.467Z,981.71
2018-05-26T07:50:21.285Z,981.69
2018-05-26T07:51:21.325Z,981.69
2018-05-26T07:52:21.141Z,981.68
2018-05-26T07:53:21.194Z,981.66
2018-05-26T07:54:21.005Z,981.66
2018-05-26T07:55:21.008Z,981.67
2018-05-26T07:56:20.947Z,981.68
2018-05-26T07:57:20.912Z,981.67
2018-05-26T07:58:20.769Z,981.69
2018-05-26T07:59:20.720Z,981.72
2018-05-26T08:00:20.581Z,981.74
2018-05-26T08:01:20.633Z,981.77
2018-05-26T08:02:20.444Z,981.79
2018-05-26T08:03:20.439Z,981.73
2018-05-26T08:04:20.299Z,981.75
2018-05-26T08:05:20.352Z,981.71
2018-05-26T08:06:20.161Z,981.75
2018-05-26T08:07:20.174Z,981.73
2018-05-26T08:08:20.032Z,981.71
2018-05-26T08:09:20.074Z,981.71
2018-05-26T08:10:19.890Z,981.69
2018-05-26T08:11:19.878Z,981.65
2018-05-26T08:12:19.763Z,981.66
2018-05-26T08:13:19.803Z,981.64
2018-05-26T08:14:19.636Z,981.67
2018-05-26T08:15:19.603Z,981.65
2018-05-26T08:16:19.506Z,981.66
2018-05-26T08:17:19.586Z,981.68
2018-05-26T08:18:19.332Z,981.69
2018-05-26T08:19:19.339Z,981.71
2018-05-26T08:20:19.207Z,981.70
2018-05-26T08:21:19.233Z,981.72
2018-05-26T08:22:19.063Z,981.72
2018-05-26T08:23:19.043Z,981.72
2018-05-26T08:24:18.920Z,981.71
2018-05-26T08:25:18.959Z,981.74
2018-05-26T08:26:18.800Z,981.69
2018-05-26T08:27:18.781Z,981.72
2018-05-26T08:28:18.651Z,981.71
2018-05-26T08:29:18.571Z,981.69
2018-05-26T08:30:18.503Z,981.70
2018-05-26T08:31:18.451Z,981.71
2018-05-26T08:32:18.377Z,981.72
2018-05-26T08:33:18.409Z,981.71
2018-05-26T08:34:18.240Z,981.74
2018-05-26T08:35:18.205Z,981.69
2018-05-26T08:36:18.113Z,981.74
2018-05-26T08:37:18.120Z,981.76
2018-05-26T08:38:17.975Z,981.72
2018-05-26T08:39:17.897Z,981.77
2018-05-26T08:40:17.947Z,981.77
2018-05-26T08:41:17.758Z,981.73
2018-05-26T08:42:17.743Z,981.75
2018-05-26T08:43:17.623Z,981.75
2018-05-26T08:44:17.657Z,981.77
2018-05-26T08:45:17.486Z,981.81
2018-05-26T08:46:17.459Z,981.79
2018-05-26T08:47:17.353Z,981.75
2018-05-26T08:48:17.377Z,981.75
2018-05-26T08:49:17.213Z,981.75
2018-05-26T08:50:17.279Z,981.77
2018-05-26T08:51:17.083Z,981.78
2018-05-26T08:52:17.095Z,981.72
2018-05-26T08:53:16.946Z,981.76
2018-05-26T08:54:17.005Z,981.77
2018-05-26T08:55:16.811Z,981.77
2018-05-26T08:56:16.816Z,981.74
2018-05-26T08:57:16.675Z,981.74
2018-05-26T08:58:16.728Z,981.74
2018-05-26T08:59:16.546Z,981.77
2018-05-26T09:00:16.537Z,981.75
2018-05-26T09:01:16.410Z,981.73
2018-05-26T09:02:16.494Z,981.73
2018-05-26T09:03:16.273Z,981.72
2018-05-26T09:04:16.256Z,981.77
2018-05-26T09:05:16.142Z,981.76
2018-05-26T09:06:16.175Z,981.75
2018-05-26T09:07:16.011Z,981.72
2018-05-26T09:08:16.081Z,981.73
2018-05-26T09:09:15.874Z,981.75
2018-05-26T09:10:15.884Z,981.77
2018-05-26T09:11:15.783Z,981.77
2018-05-26T09:12:15.800Z,981.76
2018-05-26T09:13:15.601Z,981.78
2018-05-26T09:14:15.615Z,981.82
2018-05-26T09:15:15.466Z,981.78
2018-05-26T09:16:15.519Z,981.81
2018-05-26T09:17:15.345Z,981.87
2018-05-26T09:18:15.345Z,981.80
2018-05-26T09:19:15.208Z,981.83
2018-05-26T09:20:15.239Z,981.86
2018-05-26T09:21:15.078Z,981.83
2018-05-26T09:22:15.052Z,981.90
2018-05-26T09:23:14.933Z,981.88
2018-05-26T09:24:15.984Z,981.85
2018-05-26T09:25:14.892Z,981.83
2018-05-26T09:26:14.872Z,981.86
2018-05-26T09:27:14.666Z,981.85
2018-05-26T09:28:14.677Z,981.88
2018-05-26T09:29:14.530Z,981.81
2018-05-26T09:30:14.658Z,981.83
2018-05-26T09:31:14.408Z,981.86
2018-05-26T09:32:14.401Z,981.80
2018-05-26T09:33:14.276Z,981.82
2018-05-26T09:34:14.325Z,981.83
2018-05-26T09:35:14.135Z,981.81
2018-05-26T09:36:14.123Z,981.86
2018-05-26T09:37:14.005Z,981.83
2018-05-26T09:38:13.935Z,981.85
2018-05-26T09:39:13.939Z,981.81
2018-05-26T09:40:13.807Z,981.81
2018-05-26T09:41:13.869Z,981.82
2018-05-26T09:42:13.672Z,981.83
2018-05-26T09:43:14.570Z,981.85
2018-05-26T09:44:13.539Z,981.87
2018-05-26T09:45:13.569Z,981.82
2018-05-26T09:46:13.406Z,981.85
2018-05-26T09:47:13.453Z,981.81
2018-05-26T09:48:13.278Z,981.75
2018-05-26T09:49:13.259Z,981.76
2018-05-26T09:50:13.143Z,981.81
2018-05-26T09:51:13.168Z,981.79
2018-05-26T09:52:13.013Z,981.77
2018-05-26T09:53:12.983Z,981.82
2018-05-26T09:54:12.880Z,981.76
2018-05-26T09:55:12.893Z,981.79
2018-05-26T09:56:12.750Z,981.81
2018-05-26T09:57:12.795Z,981.76
2018-05-26T09:58:12.619Z,981.78
2018-05-26T09:59:12.608Z,981.82
2018-05-26T10:00:12.491Z,981.80
2018-05-26T10:01:12.521Z,981.78
2018-05-26T10:02:12.357Z,981.78
2018-05-26T10:03:12.326Z,981.81
2018-05-26T10:04:12.230Z,981.84
2018-05-26T10:05:12.241Z,981.81
2018-05-26T10:06:12.098Z,981.79
2018-05-26T10:07:12.048Z,981.79
2018-05-26T10:08:11.965Z,981.80
2018-05-26T10:09:11.957Z,981.82
2018-05-26T10:10:11.838Z,981.82
2018-05-26T10:11:11.867Z,981.78
2018-05-26T10:12:11.702Z,981.78
2018-05-26T10:13:11.681Z,981.81
2018-05-26T10:14:11.576Z,981.78
2018-05-26T10:15:11.590Z,981.80
2018-05-26T10:16:11.448Z,981.74
2018-05-26T10:17:11.397Z,981.73
2018-05-26T10:18:11.314Z,981.76
2018-05-26T10:19:11.311Z,981.69
2018-05-26T10:20:11.184Z,981.71
2018-05-26T10:21:11.218Z,981.71
2018-05-26T10:22:11.060Z,981.71
2018-05-26T10:23:11.031Z,981.75
2018-05-26T10:24:10.925Z,981.75
2018-05-26T10:25:10.940Z,981.72
2018-05-26T10:26:10.829Z,981.76
2018-05-26T10:27:10.750Z,981.75
2018-05-26T10:28:10.668Z,981.76
2018-05-26T10:29:10.659Z,981.70
2018-05-26T10:30:10.536Z,981.70
2018-05-26T10:31:10.572Z,981.68
2018-05-26T10:32:10.410Z,981.70
2018-05-26T10:33:10.380Z,981.75
2018-05-26T10:34:10.278Z,981.71
2018-05-26T10:35:10.290Z,981.76
2018-05-26T10:36:10.154Z,981.74
2018-05-26T10:37:10.102Z,981.74
2018-05-26T10:38:10.065Z,981.74
2018-05-26T10:39:10.011Z,981.72
2018-05-26T10:40:09.892Z,981.73
2018-05-26T10:41:09.929Z,981.74
2018-05-26T10:42:09.768Z,981.73
2018-05-26T10:43:09.733Z,981.74
2018-05-26T10:44:09.644Z,981.76
2018-05-26T10:45:09.642Z,981.74
2018-05-26T10:46:09.505Z,981.73
2018-05-26T10:47:09.585Z,981.76
2018-05-26T10:48:09.377Z,981.72
2018-05-26T10:49:09.364Z,981.81
2018-05-26T10:50:09.251Z,981.76
2018-05-26T10:51:09.274Z,981.76
2018-05-26T10:52:09.127Z,981.72
2018-05-26T10:53:09.082Z,981.76
2018-05-26T10:54:08.989Z,981.73
2018-05-26T10:55:08.993Z,981.72
2018-05-26T10:56:08.863Z,981.70
2018-05-26T10:57:08.903Z,981.69
2018-05-26T10:58:08.749Z,981.67
2018-05-26T10:59:08.709Z,981.70
2018-05-26T11:00:08.606Z,981.69
2018-05-26T11:01:08.624Z,981.69
2018-05-26T11:02:08.478Z,981.67
2018-05-26T11:03:08.433Z,981.65
2018-05-26T11:04:08.380Z,981.63
2018-05-26T11:05:08.344Z,981.61
2018-05-26T11:06:08.225Z,981.63
2018-05-26T11:07:08.254Z,981.66
2018-05-26T11:08:08.092Z,981.65
2018-05-26T11:09:08.065Z,981.64
2018-05-26T11:10:07.970Z,981.68
2018-05-26T11:11:07.976Z,981.67
2018-05-26T11:12:07.842Z,981.68
2018-05-26T11:13:07.888Z,981.72
2018-05-26T11:14:07.709Z,981.74
2018-05-26T11:15:07.700Z,981.68
2018-05-26T11:16:07.779Z,981.77
2018-05-26T11:17:07.634Z,981.73
2018-05-26T11:18:07.460Z,981.72
2018-05-26T11:19:07.422Z,981.75
2018-05-26T11:20:07.333Z,981.74
2018-05-26T11:21:07.324Z,981.74
2018-05-26T11:22:07.200Z,981.78
2018-05-26T11:23:07.235Z,981.77
2018-05-26T11:24:07.337Z,981.73
2018-05-26T11:25:07.062Z,981.73
2018-05-26T11:26:06.984Z,981.75
2018-05-26T11:27:06.955Z,981.73
2018-05-26T11:28:06.820Z,981.71
2018-05-26T11:29:09.034Z,981.71
2018-05-26T11:31:06.651Z,981.69
2018-05-26T11:32:07.449Z,981.68
2018-05-26T11:33:06.586Z,981.67
2018-05-26T11:34:07.105Z,981.67
2018-05-26T11:35:06.395Z,981.67
2018-05-26T11:36:06.310Z,981.69
2018-05-26T11:37:06.308Z,981.71
2018-05-26T11:38:06.184Z,981.76
2018-05-26T11:39:06.218Z,981.70
2018-05-26T11:40:06.057Z,981.68
2018-05-26T11:41:06.026Z,981.66
2018-05-26T11:42:05.928Z,981.65
2018-05-26T11:43:05.945Z,981.65
2018-05-26T11:44:05.801Z,981.65
2018-05-26T11:45:05.849Z,981.66
2018-05-26T11:46:05.674Z,981.66
2018-05-26T11:47:05.658Z,981.68
2018-05-26T11:48:05.549Z,981.67
2018-05-26T11:49:05.580Z,981.67
2018-05-26T11:50:05.420Z,981.68
2018-05-26T11:51:05.377Z,981.65
2018-05-26T11:52:05.294Z,981.70
2018-05-26T11:53:05.307Z,981.65
2018-05-26T11:54:05.171Z,981.69
2018-05-26T11:55:05.199Z,981.64
2018-05-26T11:56:05.038Z,981.63
2018-05-26T11:57:05.010Z,981.59
2018-05-26T11:58:04.909Z,981.58
2018-05-26T11:59:04.917Z,981.57
2018-05-26T12:00:04.786Z,981.58
2018-05-26T12:01:04.830Z,981.54
2018-05-26T12:02:04.703Z,981.55
2018-05-26T12:03:04.639Z,981.54
2018-05-26T12:04:04.528Z,981.54
2018-05-26T12:05:04.552Z,981.56
2018-05-26T12:06:04.398Z,981.52
2018-05-26T12:07:04.360Z,981.51
2018-05-26T12:08:04.279Z,981.56
2018-05-26T12:09:04.271Z,981.55
2018-05-26T12:10:04.144Z,981.52
2018-05-26T12:11:04.195Z,981.53
2018-05-26T12:12:04.023Z,981.54
2018-05-26T12:13:03.986Z,981.54
2018-05-26T12:14:03.890Z,981.51
2018-05-26T12:15:03.903Z,981.55
2018-05-26T12:16:03.763Z,981.50
2018-05-26T12:17:03.811Z,981.54
2018-05-26T12:18:03.639Z,981.59
2018-05-26T12:19:03.619Z,981.61
2018-05-26T12:20:03.512Z,981.60
2018-05-26T12:21:03.532Z,981.58
2018-05-26T12:22:03.386Z,981.57
2018-05-26T12:23:03.340Z,981.56
2018-05-26T12:24:03.255Z,981.55
2018-05-26T12:25:03.251Z,981.56
2018-05-26T12:26:03.122Z,981.56
2018-05-26T12:27:03.159Z,981.53
2018-05-26T12:28:03.003Z,981.54
2018-05-26T12:29:02.977Z,981.55